Wisconsin CRJ2 at Dayton on Oct 5th 2022, runway excursion

Last Update: March 22, 2023 / 16:43:32 GMT/Zulu time

Bookmark this article
Incident Facts

Date of incident
Oct 5, 2022

Classification
Incident

Flight number
UA-3818

Aircraft Registration
N447AW

ICAO Type Designator
CRJ2

Airport ICAO Code
KDAY

An Air Wisconsin Canadair CRJ-200 on behalf of United, registration N447AW performing flight UA-3818 from Washington Dulles,DC (USA) to Dayton,OH (USA) with 42 passengers and 3 crew, landed on Dayton's runway 24L at 18:59L (22:59Z) but veered left and went left off the runway at about 60 knots over ground coming to a stop on soft surface. There were no injuries.

The crew reported after landing they had brakes and/or steering issues, possibly thrust reverser issues after landing.

The airport reported the aircraft sustained minor damage to the left wing.

The aircraft was still on the ground in Dayton about 13 hours after landing.

On Mar 22nd 2023 the NTSB announced the NTSB is investigating the occurrence stating there were no injuries and the damage was minor.

Related NOTAM:
!DAY 10/044 DAY AD AP CLSD 2210052334-2210062333

Metars:
KDAY 060056Z 00000KT 10SM SCT250 17/03 A3009 RMK AO2 SLP188 T01670028=
KDAY 052356Z 35003KT 10SM SCT250 18/04 A3009 RMK AO2 SLP188 T01780039 10256 20178 53003=
KDAY 052256Z 35003KT 10SM SCT250 22/04 A3008 RMK AO2 SLP185 T02170039=
KDAY 052156Z 36005KT 10SM SCT250 25/04 A3008 RMK AO2 SLP183 T02500039=
KDAY 052056Z 33006KT 10SM SCT250 25/02 A3008 RMK AO2 SLP182 T02500022 56017=
KDAY 051956Z 36008KT 10SM SCT250 26/01 A3009 RMK AO2 SLP186 THN SCT LYR T02560011=
Aircraft Registration Data
Registration mark
N447AW
Country of Registration
United States
Date of Registration
Ap c fmikdnjc Subscribe to unlock
Manufacturer
BOMBARDIER INC
Aircraft Model / Type
CL-600-2B19
Number of Seats
ICAO Aircraft Type
CRJ2
Year of Manufacture
Serial Number
Aircraft Address / Mode S Code (HEX)
Engine Count
Engine Manufacturer
Engine Model
Engine Type
Pounds of Thrust
Main Owner
Pgcfeggihm ebllkgedApAlj lpAfbengfpggjpbqbhpgAAgeqcinAnkqkqkdlmgqgphienqnmpAhdkjnimpqkdhfldA Subscribe to unlock
Incident Facts

Date of incident
Oct 5, 2022

Classification
Incident

Flight number
UA-3818

Aircraft Registration
N447AW

ICAO Type Designator
CRJ2

Airport ICAO Code
KDAY

This article is published under license from Avherald.com. © of text by Avherald.com.
Article source

You can read 2 more free articles without a subscription.

Subscribe now and continue reading without any limits!

Are you a subscriber? Login
Subscribe

Read unlimited articles and receive our daily update briefing. Gain better insights into what is happening in commercial aviation safety.

Send tip

Support AeroInside by sending a small tip amount.

Related articles

Newest articles

Subscribe today

Are you researching aviation incidents? Get access to AeroInside Insights, unlimited read access and receive the daily newsletter.

Pick your plan and subscribe

Partner

Blockaviation logo

A new way to document and demonstrate airworthiness compliance and aircraft value. Find out more.

ELITE Logo

ELITE Simulation Solutions is a leading global provider of Flight Simulation Training Devices, IFR training software as well as flight controls and related services. Find out more.

Blue Altitude Logo

Your regulation partner, specialists in aviation safety and compliance; providing training, auditing, and consultancy services. Find out more.

AeroInside Blog
Popular aircraft
Airbus A320
Boeing 737-800
Boeing 737-800 MAX
Popular airlines
American Airlines
United
Delta
Air Canada
Lufthansa
British Airways